sensor_id;sensor_type;location;lat;lon;timestamp;P1;durP1;ratioP1;P2;durP2;ratioP2
36315;SDS011;22343;50.820;2.666;2023-06-22T00:01:58;9.25;;;7.75;;
36315;SDS011;22343;50.820;2.666;2023-06-22T00:04:44;10.55;;;8.55;;
36315;SDS011;22343;50.820;2.666;2023-06-22T00:07:30;9.30;;;7.70;;
36315;SDS011;22343;50.820;2.666;2023-06-22T00:10:15;12.85;;;7.78;;
36315;SDS011;22343;50.820;2.666;2023-06-22T00:13:00;9.82;;;7.75;;
36315;SDS011;22343;50.820;2.666;2023-06-22T00:15:46;10.38;;;8.15;;
36315;SDS011;22343;50.820;2.666;2023-06-22T00:18:32;9.82;;;8.25;;
36315;SDS011;22343;50.820;2.666;2023-06-22T00:21:18;8.70;;;7.22;;
36315;SDS011;22343;50.820;2.666;2023-06-22T00:24:06;11.38;;;7.80;;
36315;SDS011;22343;50.820;2.666;2023-06-22T00:26:51;10.32;;;8.25;;
36315;SDS011;22343;50.820;2.666;2023-06-22T00:29:37;11.73;;;8.35;;
36315;SDS011;22343;50.820;2.666;2023-06-22T00:32:23;13.80;;;8.55;;
36315;SDS011;22343;50.820;2.666;2023-06-22T00:35:08;10.80;;;8.20;;
36315;SDS011;22343;50.820;2.666;2023-06-22T00:37:58;10.63;;;8.05;;
36315;SDS011;22343;50.820;2.666;2023-06-22T00:40:48;11.23;;;7.80;;
36315;SDS011;22343;50.820;2.666;2023-06-22T00:43:34;11.55;;;8.52;;
36315;SDS011;22343;50.820;2.666;2023-06-22T00:46:19;11.43;;;8.13;;
36315;SDS011;22343;50.820;2.666;2023-06-22T00:49:06;14.65;;;9.52;;
36315;SDS011;22343;50.820;2.666;2023-06-22T00:51:52;10.77;;;8.35;;
36315;SDS011;22343;50.820;2.666;2023-06-22T00:54:37;11.65;;;9.43;;
36315;SDS011;22343;50.820;2.666;2023-06-22T00:57:24;12.85;;;10.32;;
36315;SDS011;22343;50.820;2.666;2023-06-22T01:00:13;13.93;;;9.68;;
36315;SDS011;22343;50.820;2.666;2023-06-22T01:03:02;14.07;;;9.75;;
36315;SDS011;22343;50.820;2.666;2023-06-22T01:05:48;11.60;;;9.60;;
36315;SDS011;22343;50.820;2.666;2023-06-22T01:08:38;13.27;;;9.43;;
36315;SDS011;22343;50.820;2.666;2023-06-22T01:11:52;14.75;;;9.40;;
36315;SDS011;22343;50.820;2.666;2023-06-22T01:14:45;15.32;;;9.30;;
36315;SDS011;22343;50.820;2.666;2023-06-22T01:17:35;14.50;;;8.85;;
36315;SDS011;22343;50.820;2.666;2023-06-22T01:20:21;10.88;;;9.15;;
36315;SDS011;22343;50.820;2.666;2023-06-22T01:23:26;13.05;;;9.10;;
36315;SDS011;22343;50.820;2.666;2023-06-22T01:29:59;10.90;;;8.95;;
36315;SDS011;22343;50.820;2.666;2023-06-22T01:32:47;13.45;;;9.27;;
36315;SDS011;22343;50.820;2.666;2023-06-22T01:35:34;11.80;;;8.65;;
36315;SDS011;22343;50.820;2.666;2023-06-22T01:38:19;11.45;;;8.70;;
36315;SDS011;22343;50.820;2.666;2023-06-22T01:41:04;15.10;;;8.95;;
36315;SDS011;22343;50.820;2.666;2023-06-22T01:43:51;14.18;;;8.60;;
36315;SDS011;22343;50.820;2.666;2023-06-22T01:46:37;13.07;;;8.73;;
36315;SDS011;22343;50.820;2.666;2023-06-22T01:49:22;11.45;;;8.40;;
36315;SDS011;22343;50.820;2.666;2023-06-22T01:52:08;11.57;;;8.38;;
36315;SDS011;22343;50.820;2.666;2023-06-22T01:54:53;14.18;;;8.57;;
36315;SDS011;22343;50.820;2.666;2023-06-22T01:57:39;13.60;;;8.80;;
36315;SDS011;22343;50.820;2.666;2023-06-22T02:00:25;14.45;;;10.48;;
36315;SDS011;22343;50.820;2.666;2023-06-22T02:03:22;13.40;;;10.50;;
36315;SDS011;22343;50.820;2.666;2023-06-22T02:06:16;15.23;;;10.50;;
36315;SDS011;22343;50.820;2.666;2023-06-22T02:09:04;13.30;;;9.95;;
36315;SDS011;22343;50.820;2.666;2023-06-22T02:11:54;16.45;;;10.25;;
36315;SDS011;22343;50.820;2.666;2023-06-22T02:14:41;14.45;;;10.55;;
36315;SDS011;22343;50.820;2.666;2023-06-22T02:17:27;14.65;;;10.05;;
36315;SDS011;22343;50.820;2.666;2023-06-22T02:20:13;13.50;;;10.63;;
36315;SDS011;22343;50.820;2.666;2023-06-22T02:23:00;13.95;;;10.60;;
36315;SDS011;22343;50.820;2.666;2023-06-22T02:25:46;15.52;;;11.15;;
36315;SDS011;22343;50.820;2.666;2023-06-22T02:28:31;16.40;;;11.13;;
36315;SDS011;22343;50.820;2.666;2023-06-22T02:31:17;15.30;;;10.38;;
36315;SDS011;22343;50.820;2.666;2023-06-22T02:34:03;15.27;;;9.77;;
36315;SDS011;22343;50.820;2.666;2023-06-22T02:36:49;15.52;;;10.38;;
36315;SDS011;22343;50.820;2.666;2023-06-22T02:39:37;16.23;;;11.15;;
36315;SDS011;22343;50.820;2.666;2023-06-22T02:42:23;18.05;;;11.35;;
36315;SDS011;22343;50.820;2.666;2023-06-22T02:45:09;15.15;;;11.10;;
36315;SDS011;22343;50.820;2.666;2023-06-22T02:47:55;16.75;;;11.63;;
36315;SDS011;22343;50.820;2.666;2023-06-22T02:50:41;16.17;;;11.07;;
36315;SDS011;22343;50.820;2.666;2023-06-22T02:53:25;19.08;;;11.20;;
36315;SDS011;22343;50.820;2.666;2023-06-22T02:56:11;16.40;;;10.68;;
36315;SDS011;22343;50.820;2.666;2023-06-22T02:58:57;14.48;;;10.80;;
36315;SDS011;22343;50.820;2.666;2023-06-22T03:01:46;15.40;;;11.40;;
36315;SDS011;22343;50.820;2.666;2023-06-22T03:04:33;15.80;;;11.82;;
36315;SDS011;22343;50.820;2.666;2023-06-22T03:07:19;16.67;;;11.43;;
36315;SDS011;22343;50.820;2.666;2023-06-22T03:10:05;15.75;;;11.10;;
36315;SDS011;22343;50.820;2.666;2023-06-22T03:12:52;13.88;;;10.85;;
36315;SDS011;22343;50.820;2.666;2023-06-22T03:15:36;14.68;;;11.07;;
36315;SDS011;22343;50.820;2.666;2023-06-22T03:18:22;16.80;;;10.70;;
36315;SDS011;22343;50.820;2.666;2023-06-22T03:21:07;16.88;;;11.98;;
36315;SDS011;22343;50.820;2.666;2023-06-22T03:23:53;16.35;;;11.52;;
36315;SDS011;22343;50.820;2.666;2023-06-22T03:26:37;15.65;;;10.90;;
36315;SDS011;22343;50.820;2.666;2023-06-22T03:29:23;15.95;;;11.02;;
36315;SDS011;22343;50.820;2.666;2023-06-22T03:32:10;17.63;;;11.50;;
36315;SDS011;22343;50.820;2.666;2023-06-22T03:34:56;15.25;;;10.50;;
36315;SDS011;22343;50.820;2.666;2023-06-22T03:37:44;18.77;;;10.73;;
36315;SDS011;22343;50.820;2.666;2023-06-22T03:40:29;16.88;;;10.90;;
36315;SDS011;22343;50.820;2.666;2023-06-22T03:43:15;19.05;;;11.00;;
36315;SDS011;22343;50.820;2.666;2023-06-22T03:46:00;15.85;;;11.68;;
36315;SDS011;22343;50.820;2.666;2023-06-22T03:48:46;19.02;;;10.27;;
36315;SDS011;22343;50.820;2.666;2023-06-22T03:51:32;15.55;;;10.13;;
36315;SDS011;22343;50.820;2.666;2023-06-22T03:54:18;17.05;;;10.68;;
36315;SDS011;22343;50.820;2.666;2023-06-22T03:57:04;16.17;;;11.00;;
36315;SDS011;22343;50.820;2.666;2023-06-22T03:59:50;15.38;;;11.23;;
36315;SDS011;22343;50.820;2.666;2023-06-22T04:02:36;16.35;;;11.57;;
36315;SDS011;22343;50.820;2.666;2023-06-22T04:05:22;15.52;;;10.98;;
36315;SDS011;22343;50.820;2.666;2023-06-22T04:08:09;18.95;;;11.23;;
36315;SDS011;22343;50.820;2.666;2023-06-22T04:10:55;13.32;;;10.02;;
36315;SDS011;22343;50.820;2.666;2023-06-22T04:13:41;17.85;;;11.00;;
36315;SDS011;22343;50.820;2.666;2023-06-22T04:16:27;14.70;;;11.13;;
36315;SDS011;22343;50.820;2.666;2023-06-22T04:19:13;16.90;;;10.63;;
36315;SDS011;22343;50.820;2.666;2023-06-22T04:22:04;16.08;;;10.65;;
36315;SDS011;22343;50.820;2.666;2023-06-22T04:24:51;14.73;;;11.00;;
36315;SDS011;22343;50.820;2.666;2023-06-22T04:27:38;16.52;;;11.00;;
36315;SDS011;22343;50.820;2.666;2023-06-22T04:30:25;18.63;;;10.02;;
36315;SDS011;22343;50.820;2.666;2023-06-22T04:33:12;16.20;;;9.93;;
36315;SDS011;22343;50.820;2.666;2023-06-22T04:35:58;16.83;;;10.93;;
36315;SDS011;22343;50.820;2.666;2023-06-22T04:38:46;18.17;;;10.70;;
36315;SDS011;22343;50.820;2.666;2023-06-22T04:41:32;15.65;;;11.02;;
36315;SDS011;22343;50.820;2.666;2023-06-22T04:44:27;15.05;;;10.55;;
36315;SDS011;22343;50.820;2.666;2023-06-22T04:47:13;13.52;;;11.20;;
36315;SDS011;22343;50.820;2.666;2023-06-22T04:49:58;15.25;;;11.13;;
36315;SDS011;22343;50.820;2.666;2023-06-22T04:52:44;14.23;;;11.80;;
36315;SDS011;22343;50.820;2.666;2023-06-22T04:55:31;17.98;;;12.18;;
36315;SDS011;22343;50.820;2.666;2023-06-22T04:58:17;15.52;;;11.90;;
36315;SDS011;22343;50.820;2.666;2023-06-22T05:01:05;14.73;;;12.30;;
36315;SDS011;22343;50.820;2.666;2023-06-22T05:03:50;17.75;;;12.60;;
36315;SDS011;22343;50.820;2.666;2023-06-22T05:06:41;17.65;;;12.05;;
36315;SDS011;22343;50.820;2.666;2023-06-22T05:09:26;18.27;;;12.20;;
36315;SDS011;22343;50.820;2.666;2023-06-22T05:12:13;17.52;;;11.95;;
36315;SDS011;22343;50.820;2.666;2023-06-22T05:14:58;18.63;;;13.02;;
36315;SDS011;22343;50.820;2.666;2023-06-22T05:17:44;18.35;;;12.65;;
36315;SDS011;22343;50.820;2.666;2023-06-22T05:20:33;15.57;;;12.40;;
36315;SDS011;22343;50.820;2.666;2023-06-22T05:23:21;16.58;;;12.60;;
36315;SDS011;22343;50.820;2.666;2023-06-22T05:26:07;17.65;;;12.68;;
36315;SDS011;22343;50.820;2.666;2023-06-22T05:28:54;15.35;;;12.27;;
36315;SDS011;22343;50.820;2.666;2023-06-22T05:31:40;15.65;;;12.20;;
36315;SDS011;22343;50.820;2.666;2023-06-22T05:34:26;14.13;;;11.98;;
36315;SDS011;22343;50.820;2.666;2023-06-22T05:37:12;14.65;;;12.02;;
36315;SDS011;22343;50.820;2.666;2023-06-22T05:39:58;15.95;;;11.23;;
36315;SDS011;22343;50.820;2.666;2023-06-22T05:42:44;13.55;;;11.10;;
36315;SDS011;22343;50.820;2.666;2023-06-22T05:45:30;14.43;;;10.45;;
36315;SDS011;22343;50.820;2.666;2023-06-22T05:48:15;14.02;;;10.60;;
36315;SDS011;22343;50.820;2.666;2023-06-22T05:51:00;14.23;;;10.73;;
36315;SDS011;22343;50.820;2.666;2023-06-22T05:53:46;13.50;;;11.13;;
36315;SDS011;22343;50.820;2.666;2023-06-22T05:56:35;12.90;;;10.70;;
36315;SDS011;22343;50.820;2.666;2023-06-22T05:59:21;12.75;;;10.43;;
36315;SDS011;22343;50.820;2.666;2023-06-22T06:02:06;13.00;;;10.45;;
36315;SDS011;22343;50.820;2.666;2023-06-22T06:04:52;10.55;;;9.23;;
36315;SDS011;22343;50.820;2.666;2023-06-22T06:07:37;12.70;;;9.98;;
36315;SDS011;22343;50.820;2.666;2023-06-22T06:10:23;13.05;;;9.60;;
36315;SDS011;22343;50.820;2.666;2023-06-22T06:13:09;12.77;;;10.40;;
36315;SDS011;22343;50.820;2.666;2023-06-22T06:15:56;12.18;;;9.93;;
36315;SDS011;22343;50.820;2.666;2023-06-22T06:18:43;10.50;;;8.70;;
36315;SDS011;22343;50.820;2.666;2023-06-22T06:21:29;10.00;;;7.97;;
36315;SDS011;22343;50.820;2.666;2023-06-22T06:24:14;9.77;;;7.68;;
36315;SDS011;22343;50.820;2.666;2023-06-22T06:27:00;8.45;;;6.72;;
36315;SDS011;22343;50.820;2.666;2023-06-22T06:29:50;8.32;;;7.28;;
36315;SDS011;22343;50.820;2.666;2023-06-22T06:32:35;8.30;;;6.90;;
36315;SDS011;22343;50.820;2.666;2023-06-22T06:35:20;9.23;;;7.18;;
36315;SDS011;22343;50.820;2.666;2023-06-22T06:38:07;7.53;;;6.45;;
36315;SDS011;22343;50.820;2.666;2023-06-22T06:40:53;7.93;;;6.70;;
36315;SDS011;22343;50.820;2.666;2023-06-22T06:43:38;7.28;;;6.28;;
36315;SDS011;22343;50.820;2.666;2023-06-22T06:46:24;7.60;;;6.80;;
36315;SDS011;22343;50.820;2.666;2023-06-22T06:49:10;9.38;;;7.07;;
36315;SDS011;22343;50.820;2.666;2023-06-22T06:51:55;7.78;;;6.80;;
36315;SDS011;22343;50.820;2.666;2023-06-22T06:54:41;10.38;;;7.97;;
36315;SDS011;22343;50.820;2.666;2023-06-22T06:57:27;8.00;;;6.93;;
36315;SDS011;22343;50.820;2.666;2023-06-22T07:00:14;10.82;;;7.28;;
36315;SDS011;22343;50.820;2.666;2023-06-22T07:03:00;9.13;;;7.60;;
36315;SDS011;22343;50.820;2.666;2023-06-22T07:05:46;9.98;;;7.82;;
36315;SDS011;22343;50.820;2.666;2023-06-22T07:08:32;8.60;;;7.40;;
36315;SDS011;22343;50.820;2.666;2023-06-22T07:11:17;9.18;;;7.63;;
36315;SDS011;22343;50.820;2.666;2023-06-22T07:14:03;11.32;;;7.68;;
36315;SDS011;22343;50.820;2.666;2023-06-22T07:16:48;8.30;;;7.28;;
36315;SDS011;22343;50.820;2.666;2023-06-22T07:19:34;8.45;;;7.45;;
36315;SDS011;22343;50.820;2.666;2023-06-22T07:22:20;8.57;;;7.50;;
36315;SDS011;22343;50.820;2.666;2023-06-22T07:25:06;8.95;;;7.38;;
36315;SDS011;22343;50.820;2.666;2023-06-22T07:27:58;9.25;;;6.60;;
36315;SDS011;22343;50.820;2.666;2023-06-22T07:30:48;7.85;;;6.78;;
36315;SDS011;22343;50.820;2.666;2023-06-22T07:33:36;8.18;;;6.40;;
36315;SDS011;22343;50.820;2.666;2023-06-22T07:36:22;8.60;;;7.00;;
36315;SDS011;22343;50.820;2.666;2023-06-22T07:39:07;6.88;;;5.97;;
36315;SDS011;22343;50.820;2.666;2023-06-22T07:41:53;8.07;;;6.07;;
36315;SDS011;22343;50.820;2.666;2023-06-22T07:44:38;7.30;;;6.40;;
36315;SDS011;22343;50.820;2.666;2023-06-22T07:47:24;7.07;;;6.35;;
36315;SDS011;22343;50.820;2.666;2023-06-22T07:50:13;7.45;;;6.18;;
36315;SDS011;22343;50.820;2.666;2023-06-22T07:52:59;8.43;;;6.90;;
36315;SDS011;22343;50.820;2.666;2023-06-22T07:55:50;9.75;;;6.90;;
36315;SDS011;22343;50.820;2.666;2023-06-22T07:58:34;8.35;;;6.63;;
36315;SDS011;22343;50.820;2.666;2023-06-22T08:01:19;9.80;;;6.80;;
36315;SDS011;22343;50.820;2.666;2023-06-22T08:04:08;9.02;;;6.90;;
36315;SDS011;22343;50.820;2.666;2023-06-22T08:06:53;8.82;;;7.68;;
36315;SDS011;22343;50.820;2.666;2023-06-22T08:09:39;9.98;;;7.55;;
36315;SDS011;22343;50.820;2.666;2023-06-22T08:12:32;8.95;;;7.32;;
36315;SDS011;22343;50.820;2.666;2023-06-22T08:15:19;9.52;;;6.85;;
36315;SDS011;22343;50.820;2.666;2023-06-22T08:18:04;8.02;;;6.22;;
36315;SDS011;22343;50.820;2.666;2023-06-22T08:20:49;8.13;;;6.18;;
36315;SDS011;22343;50.820;2.666;2023-06-22T08:23:35;7.18;;;5.90;;
36315;SDS011;22343;50.820;2.666;2023-06-22T08:26:21;8.48;;;6.03;;
36315;SDS011;22343;50.820;2.666;2023-06-22T08:29:07;6.85;;;5.80;;
36315;SDS011;22343;50.820;2.666;2023-06-22T08:31:51;8.80;;;6.28;;
36315;SDS011;22343;50.820;2.666;2023-06-22T08:34:36;7.50;;;6.07;;
36315;SDS011;22343;50.820;2.666;2023-06-22T08:37:20;7.32;;;5.40;;
36315;SDS011;22343;50.820;2.666;2023-06-22T08:40:09;7.35;;;5.95;;
36315;SDS011;22343;50.820;2.666;2023-06-22T08:42:55;7.50;;;5.75;;
36315;SDS011;22343;50.820;2.666;2023-06-22T08:45:41;7.05;;;5.50;;
36315;SDS011;22343;50.820;2.666;2023-06-22T08:48:27;8.88;;;6.13;;
36315;SDS011;22343;50.820;2.666;2023-06-22T08:51:13;7.03;;;5.82;;
36315;SDS011;22343;50.820;2.666;2023-06-22T08:53:59;8.48;;;5.60;;
36315;SDS011;22343;50.820;2.666;2023-06-22T08:56:45;7.63;;;5.78;;
36315;SDS011;22343;50.820;2.666;2023-06-22T08:59:31;7.00;;;5.75;;
36315;SDS011;22343;50.820;2.666;2023-06-22T09:02:16;6.70;;;5.60;;
36315;SDS011;22343;50.820;2.666;2023-06-22T09:05:03;7.10;;;5.80;;
36315;SDS011;22343;50.820;2.666;2023-06-22T09:07:49;8.50;;;5.90;;
36315;SDS011;22343;50.820;2.666;2023-06-22T09:10:35;5.95;;;5.25;;
36315;SDS011;22343;50.820;2.666;2023-06-22T09:13:21;6.63;;;5.32;;
36315;SDS011;22343;50.820;2.666;2023-06-22T09:16:07;6.68;;;5.00;;
36315;SDS011;22343;50.820;2.666;2023-06-22T09:18:53;7.97;;;5.10;;
36315;SDS011;22343;50.820;2.666;2023-06-22T09:21:39;5.63;;;4.70;;
36315;SDS011;22343;50.820;2.666;2023-06-22T09:24:25;6.97;;;5.40;;
36315;SDS011;22343;50.820;2.666;2023-06-22T09:27:11;7.30;;;5.90;;
36315;SDS011;22343;50.820;2.666;2023-06-22T09:29:57;10.50;;;6.43;;
36315;SDS011;22343;50.820;2.666;2023-06-22T09:32:42;8.13;;;6.40;;
36315;SDS011;22343;50.820;2.666;2023-06-22T09:35:29;7.90;;;6.35;;
36315;SDS011;22343;50.820;2.666;2023-06-22T09:38:15;8.35;;;6.97;;
36315;SDS011;22343;50.820;2.666;2023-06-22T09:40:59;8.18;;;6.45;;
36315;SDS011;22343;50.820;2.666;2023-06-22T09:43:44;7.30;;;6.47;;
36315;SDS011;22343;50.820;2.666;2023-06-22T09:46:29;7.95;;;6.28;;
36315;SDS011;22343;50.820;2.666;2023-06-22T09:49:15;8.18;;;6.10;;
36315;SDS011;22343;50.820;2.666;2023-06-22T09:52:01;9.40;;;6.15;;
36315;SDS011;22343;50.820;2.666;2023-06-22T09:54:46;7.80;;;6.10;;
36315;SDS011;22343;50.820;2.666;2023-06-22T09:57:32;7.60;;;6.00;;
36315;SDS011;22343;50.820;2.666;2023-06-22T10:00:18;7.75;;;5.45;;
36315;SDS011;22343;50.820;2.666;2023-06-22T10:03:03;8.32;;;5.95;;
36315;SDS011;22343;50.820;2.666;2023-06-22T10:05:47;8.43;;;5.93;;
36315;SDS011;22343;50.820;2.666;2023-06-22T10:08:32;7.05;;;5.47;;
36315;SDS011;22343;50.820;2.666;2023-06-22T10:11:18;8.18;;;5.70;;
36315;SDS011;22343;50.820;2.666;2023-06-22T10:14:02;8.48;;;5.90;;
36315;SDS011;22343;50.820;2.666;2023-06-22T10:16:48;7.18;;;5.82;;
36315;SDS011;22343;50.820;2.666;2023-06-22T10:19:32;5.65;;;5.07;;
36315;SDS011;22343;50.820;2.666;2023-06-22T10:22:17;7.40;;;5.32;;
36315;SDS011;22343;50.820;2.666;2023-06-22T10:25:03;6.45;;;5.10;;
36315;SDS011;22343;50.820;2.666;2023-06-22T10:27:48;6.60;;;5.40;;
36315;SDS011;22343;50.820;2.666;2023-06-22T10:30:34;6.82;;;5.10;;
36315;SDS011;22343;50.820;2.666;2023-06-22T10:33:19;7.22;;;4.88;;
36315;SDS011;22343;50.820;2.666;2023-06-22T10:36:05;6.53;;;5.32;;
36315;SDS011;22343;50.820;2.666;2023-06-22T10:38:51;8.75;;;6.38;;
36315;SDS011;22343;50.820;2.666;2023-06-22T10:41:38;7.93;;;6.00;;
36315;SDS011;22343;50.820;2.666;2023-06-22T10:44:24;6.68;;;6.00;;
36315;SDS011;22343;50.820;2.666;2023-06-22T10:47:09;8.82;;;6.38;;
36315;SDS011;22343;50.820;2.666;2023-06-22T10:49:56;9.00;;;6.18;;
36315;SDS011;22343;50.820;2.666;2023-06-22T10:52:40;8.52;;;6.88;;
36315;SDS011;22343;50.820;2.666;2023-06-22T10:55:29;9.60;;;7.22;;
36315;SDS011;22343;50.820;2.666;2023-06-22T10:58:14;8.50;;;6.93;;
36315;SDS011;22343;50.820;2.666;2023-06-22T11:00:59;9.60;;;7.32;;
36315;SDS011;22343;50.820;2.666;2023-06-22T11:03:45;9.35;;;7.28;;
36315;SDS011;22343;50.820;2.666;2023-06-22T11:06:29;7.75;;;6.90;;
36315;SDS011;22343;50.820;2.666;2023-06-22T11:09:15;9.15;;;7.47;;
36315;SDS011;22343;50.820;2.666;2023-06-22T11:12:08;9.45;;;7.13;;
36315;SDS011;22343;50.820;2.666;2023-06-22T11:14:54;9.73;;;7.45;;
36315;SDS011;22343;50.820;2.666;2023-06-22T11:17:42;8.55;;;7.60;;
36315;SDS011;22343;50.820;2.666;2023-06-22T11:20:27;10.85;;;8.32;;
36315;SDS011;22343;50.820;2.666;2023-06-22T11:23:12;9.63;;;8.52;;
36315;SDS011;22343;50.820;2.666;2023-06-22T11:25:56;11.50;;;9.00;;
36315;SDS011;22343;50.820;2.666;2023-06-22T11:28:42;11.00;;;8.80;;
36315;SDS011;22343;50.820;2.666;2023-06-22T11:31:27;10.65;;;8.32;;
36315;SDS011;22343;50.820;2.666;2023-06-22T11:34:14;11.98;;;9.43;;
36315;SDS011;22343;50.820;2.666;2023-06-22T11:37:00;11.93;;;10.15;;
36315;SDS011;22343;50.820;2.666;2023-06-22T11:39:44;14.38;;;10.82;;
36315;SDS011;22343;50.820;2.666;2023-06-22T11:42:31;12.98;;;10.23;;
36315;SDS011;22343;50.820;2.666;2023-06-22T11:45:16;11.95;;;9.88;;
36315;SDS011;22343;50.820;2.666;2023-06-22T11:48:02;12.93;;;10.90;;
36315;SDS011;22343;50.820;2.666;2023-06-22T11:50:50;14.20;;;11.38;;
36315;SDS011;22343;50.820;2.666;2023-06-22T11:53:35;12.38;;;10.80;;
36315;SDS011;22343;50.820;2.666;2023-06-22T11:56:21;14.48;;;10.65;;
36315;SDS011;22343;50.820;2.666;2023-06-22T11:59:08;13.40;;;11.25;;
36315;SDS011;22343;50.820;2.666;2023-06-22T12:01:54;13.73;;;11.55;;
36315;SDS011;22343;50.820;2.666;2023-06-22T12:04:40;13.57;;;11.45;;
36315;SDS011;22343;50.820;2.666;2023-06-22T12:07:27;15.65;;;12.55;;
36315;SDS011;22343;50.820;2.666;2023-06-22T12:10:13;15.30;;;12.23;;
36315;SDS011;22343;50.820;2.666;2023-06-22T12:12:57;17.15;;;11.70;;
36315;SDS011;22343;50.820;2.666;2023-06-22T12:15:45;15.60;;;12.43;;
36315;SDS011;22343;50.820;2.666;2023-06-22T12:18:30;15.50;;;12.90;;
36315;SDS011;22343;50.820;2.666;2023-06-22T12:21:15;15.07;;;12.70;;
36315;SDS011;22343;50.820;2.666;2023-06-22T12:24:00;15.07;;;12.48;;
36315;SDS011;22343;50.820;2.666;2023-06-22T12:26:45;15.38;;;12.48;;
36315;SDS011;22343;50.820;2.666;2023-06-22T12:29:30;17.77;;;13.20;;
36315;SDS011;22343;50.820;2.666;2023-06-22T12:32:16;15.32;;;12.00;;
36315;SDS011;22343;50.820;2.666;2023-06-22T12:35:01;14.63;;;10.82;;
36315;SDS011;22343;50.820;2.666;2023-06-22T12:37:50;15.57;;;12.40;;
36315;SDS011;22343;50.820;2.666;2023-06-22T12:40:36;15.43;;;11.95;;
36315;SDS011;22343;50.820;2.666;2023-06-22T12:43:22;16.27;;;13.23;;
36315;SDS011;22343;50.820;2.666;2023-06-22T12:46:08;15.23;;;12.90;;
36315;SDS011;22343;50.820;2.666;2023-06-22T12:48:53;15.57;;;12.75;;
36315;SDS011;22343;50.820;2.666;2023-06-22T12:51:42;15.52;;;12.98;;
36315;SDS011;22343;50.820;2.666;2023-06-22T12:54:28;16.33;;;12.90;;
36315;SDS011;22343;50.820;2.666;2023-06-22T12:57:18;15.32;;;13.38;;
36315;SDS011;22343;50.820;2.666;2023-06-22T13:00:05;14.10;;;12.02;;
36315;SDS011;22343;50.820;2.666;2023-06-22T13:02:53;15.07;;;13.02;;
36315;SDS011;22343;50.820;2.666;2023-06-22T13:05:38;14.43;;;12.05;;
36315;SDS011;22343;50.820;2.666;2023-06-22T13:08:24;13.30;;;11.90;;
36315;SDS011;22343;50.820;2.666;2023-06-22T13:11:11;13.45;;;11.43;;
36315;SDS011;22343;50.820;2.666;2023-06-22T13:13:57;12.27;;;10.98;;
36315;SDS011;22343;50.820;2.666;2023-06-22T13:16:42;14.20;;;11.88;;
36315;SDS011;22343;50.820;2.666;2023-06-22T13:19:26;14.38;;;11.75;;
36315;SDS011;22343;50.820;2.666;2023-06-22T13:22:35;13.18;;;11.80;;
36315;SDS011;22343;50.820;2.666;2023-06-22T13:25:31;13.90;;;11.70;;
36315;SDS011;22343;50.820;2.666;2023-06-22T13:28:16;15.00;;;12.20;;
36315;SDS011;22343;50.820;2.666;2023-06-22T13:31:03;12.73;;;10.82;;
36315;SDS011;22343;50.820;2.666;2023-06-22T13:33:47;12.90;;;10.77;;
36315;SDS011;22343;50.820;2.666;2023-06-22T13:36:33;13.23;;;10.75;;
36315;SDS011;22343;50.820;2.666;2023-06-22T13:39:19;12.85;;;10.65;;
36315;SDS011;22343;50.820;2.666;2023-06-22T13:42:05;13.10;;;11.02;;
36315;SDS011;22343;50.820;2.666;2023-06-22T13:44:52;14.65;;;10.52;;
36315;SDS011;22343;50.820;2.666;2023-06-22T13:47:38;14.00;;;11.15;;
36315;SDS011;22343;50.820;2.666;2023-06-22T13:50:24;12.63;;;10.55;;
36315;SDS011;22343;50.820;2.666;2023-06-22T13:53:10;13.98;;;12.02;;
36315;SDS011;22343;50.820;2.666;2023-06-22T13:55:55;12.38;;;10.80;;
36315;SDS011;22343;50.820;2.666;2023-06-22T13:58:40;14.45;;;11.70;;
36315;SDS011;22343;50.820;2.666;2023-06-22T14:01:25;11.98;;;10.30;;
36315;SDS011;22343;50.820;2.666;2023-06-22T14:04:11;13.07;;;10.75;;
36315;SDS011;22343;50.820;2.666;2023-06-22T14:06:57;15.95;;;10.93;;
36315;SDS011;22343;50.820;2.666;2023-06-22T14:09:44;13.30;;;11.07;;
36315;SDS011;22343;50.820;2.666;2023-06-22T14:12:30;15.85;;;11.63;;
36315;SDS011;22343;50.820;2.666;2023-06-22T14:15:15;12.95;;;10.85;;
36315;SDS011;22343;50.820;2.666;2023-06-22T14:18:00;14.48;;;11.20;;
36315;SDS011;22343;50.820;2.666;2023-06-22T14:20:46;14.05;;;10.88;;
36315;SDS011;22343;50.820;2.666;2023-06-22T14:23:32;12.02;;;10.52;;
36315;SDS011;22343;50.820;2.666;2023-06-22T14:26:19;14.02;;;10.32;;
36315;SDS011;22343;50.820;2.666;2023-06-22T14:29:03;12.23;;;10.55;;
36315;SDS011;22343;50.820;2.666;2023-06-22T14:31:48;12.18;;;10.40;;
36315;SDS011;22343;50.820;2.666;2023-06-22T14:34:34;13.45;;;11.18;;
36315;SDS011;22343;50.820;2.666;2023-06-22T14:37:24;11.98;;;10.27;;
36315;SDS011;22343;50.820;2.666;2023-06-22T14:40:10;11.98;;;10.15;;
36315;SDS011;22343;50.820;2.666;2023-06-22T14:42:57;12.80;;;10.48;;
36315;SDS011;22343;50.820;2.666;2023-06-22T14:45:43;13.25;;;11.40;;
36315;SDS011;22343;50.820;2.666;2023-06-22T14:48:29;13.23;;;11.00;;
36315;SDS011;22343;50.820;2.666;2023-06-22T14:51:15;12.10;;;10.88;;
36315;SDS011;22343;50.820;2.666;2023-06-22T14:54:00;12.15;;;9.70;;
36315;SDS011;22343;50.820;2.666;2023-06-22T14:56:47;12.13;;;10.07;;
36315;SDS011;22343;50.820;2.666;2023-06-22T14:59:33;11.40;;;9.90;;
36315;SDS011;22343;50.820;2.666;2023-06-22T15:02:18;12.40;;;10.48;;
36315;SDS011;22343;50.820;2.666;2023-06-22T15:05:04;13.15;;;10.88;;
36315;SDS011;22343;50.820;2.666;2023-06-22T15:07:49;13.07;;;10.57;;
36315;SDS011;22343;50.820;2.666;2023-06-22T15:10:33;13.18;;;11.48;;
36315;SDS011;22343;50.820;2.666;2023-06-22T15:13:20;12.45;;;10.75;;
36315;SDS011;22343;50.820;2.666;2023-06-22T15:16:06;12.25;;;10.82;;
36315;SDS011;22343;50.820;2.666;2023-06-22T15:18:51;13.10;;;10.60;;
36315;SDS011;22343;50.820;2.666;2023-06-22T15:21:38;12.60;;;11.25;;
36315;SDS011;22343;50.820;2.666;2023-06-22T15:24:23;15.30;;;10.75;;
36315;SDS011;22343;50.820;2.666;2023-06-22T15:27:09;13.77;;;11.93;;
36315;SDS011;22343;50.820;2.666;2023-06-22T15:29:55;15.52;;;13.73;;
36315;SDS011;22343;50.820;2.666;2023-06-22T15:32:42;15.95;;;13.43;;
36315;SDS011;22343;50.820;2.666;2023-06-22T15:35:30;15.07;;;13.30;;
36315;SDS011;22343;50.820;2.666;2023-06-22T15:38:16;16.00;;;13.50;;
36315;SDS011;22343;50.820;2.666;2023-06-22T15:41:02;15.90;;;12.73;;
36315;SDS011;22343;50.820;2.666;2023-06-22T15:43:48;15.43;;;12.50;;
36315;SDS011;22343;50.820;2.666;2023-06-22T15:46:34;14.70;;;11.85;;
36315;SDS011;22343;50.820;2.666;2023-06-22T15:49:19;14.68;;;11.52;;
36315;SDS011;22343;50.820;2.666;2023-06-22T15:52:04;13.52;;;12.07;;
36315;SDS011;22343;50.820;2.666;2023-06-22T15:54:50;13.10;;;11.40;;
36315;SDS011;22343;50.820;2.666;2023-06-22T15:57:36;15.88;;;11.23;;
36315;SDS011;22343;50.820;2.666;2023-06-22T16:00:22;13.20;;;11.40;;
36315;SDS011;22343;50.820;2.666;2023-06-22T16:03:08;14.65;;;11.00;;
36315;SDS011;22343;50.820;2.666;2023-06-22T16:05:54;11.07;;;9.80;;
36315;SDS011;22343;50.820;2.666;2023-06-22T16:08:40;13.20;;;10.68;;
36315;SDS011;22343;50.820;2.666;2023-06-22T16:11:25;15.18;;;11.98;;
36315;SDS011;22343;50.820;2.666;2023-06-22T16:14:10;12.82;;;10.70;;
36315;SDS011;22343;50.820;2.666;2023-06-22T16:16:56;13.00;;;10.98;;
36315;SDS011;22343;50.820;2.666;2023-06-22T16:19:41;12.75;;;10.85;;
36315;SDS011;22343;50.820;2.666;2023-06-22T16:22:27;14.68;;;11.38;;
36315;SDS011;22343;50.820;2.666;2023-06-22T16:25:13;12.85;;;10.00;;
36315;SDS011;22343;50.820;2.666;2023-06-22T16:27:59;10.05;;;8.70;;